createdAt,value
2017-09-30T00:01:20.355Z,14.70
2017-09-30T00:03:47.871Z,15.47
2017-09-30T00:06:15.412Z,13.60
2017-09-30T00:08:42.924Z,14.60
2017-09-30T00:11:10.444Z,13.50
2017-09-30T00:13:37.972Z,13.10
2017-09-30T00:16:05.504Z,14.87
2017-09-30T00:18:33.047Z,15.13
2017-09-30T00:21:00.564Z,14.93
2017-09-30T00:23:28.118Z,14.20
2017-09-30T00:25:55.654Z,14.00
2017-09-30T00:28:23.185Z,15.70
2017-09-30T00:30:50.694Z,15.00
2017-09-30T00:33:18.229Z,14.57
2017-09-30T00:35:45.745Z,15.30
2017-09-30T00:38:13.255Z,14.13
2017-09-30T00:40:41.545Z,14.80
2017-09-30T00:43:09.072Z,15.40
2017-09-30T00:45:36.614Z,15.90
2017-09-30T00:48:04.125Z,15.40
2017-09-30T00:50:31.649Z,15.80
2017-09-30T00:52:59.193Z,15.13
2017-09-30T00:55:26.701Z,14.87
2017-09-30T00:57:54.246Z,15.87
2017-09-30T01:00:21.760Z,15.37
2017-09-30T01:02:49.284Z,16.00
2017-09-30T01:05:16.781Z,15.40
2017-09-30T01:07:44.321Z,15.03
2017-09-30T01:10:11.828Z,14.80
2017-09-30T01:12:39.357Z,14.17
2017-09-30T01:15:06.864Z,14.40
2017-09-30T01:17:34.380Z,13.67
2017-09-30T01:20:01.923Z,15.13
2017-09-30T01:22:29.450Z,15.20
2017-09-30T01:24:56.992Z,14.80
2017-09-30T01:27:24.501Z,14.90
2017-09-30T01:29:52.029Z,15.70
2017-09-30T01:32:19.532Z,15.90
2017-09-30T01:34:47.110Z,14.43
2017-09-30T01:37:15.393Z,15.83
2017-09-30T01:39:42.895Z,14.43
2017-09-30T01:42:10.419Z,14.40
2017-09-30T01:44:37.917Z,15.00
2017-09-30T01:47:05.449Z,15.90
2017-09-30T01:49:32.959Z,15.87
2017-09-30T01:52:00.484Z,16.77
2017-09-30T01:54:27.980Z,16.17
2017-09-30T01:56:55.508Z,17.47
2017-09-30T01:59:23.021Z,17.10
2017-09-30T02:01:51.297Z,18.13
2017-09-30T02:04:18.845Z,18.77
2017-09-30T02:06:46.349Z,18.20
2017-09-30T02:09:13.876Z,16.80
2017-09-30T02:11:41.392Z,18.77
2017-09-30T02:14:08.969Z,16.90
2017-09-30T02:16:36.483Z,17.40
2017-09-30T02:19:04.020Z,18.43
2017-09-30T02:21:31.540Z,17.57
2017-09-30T02:23:59.053Z,18.43
2017-09-30T02:26:26.598Z,17.87
2017-09-30T02:28:54.118Z,17.20
2017-09-30T02:31:22.424Z,17.60
2017-09-30T02:33:49.944Z,16.90
2017-09-30T02:36:17.469Z,15.03
2017-09-30T02:38:45.014Z,16.17
2017-09-30T02:41:12.521Z,17.70
2017-09-30T02:43:40.053Z,15.87
2017-09-30T02:46:07.585Z,16.83
2017-09-30T02:48:35.127Z,17.97
2017-09-30T02:51:02.640Z,16.80
2017-09-30T02:53:30.147Z,16.40
2017-09-30T02:55:57.677Z,18.70
2017-09-30T02:58:25.193Z,18.00
2017-09-30T03:00:52.731Z,18.97
2017-09-30T03:03:20.246Z,19.17
2017-09-30T03:05:48.412Z,18.33
2017-09-30T03:08:15.907Z,18.13
2017-09-30T03:10:43.414Z,18.17
2017-09-30T03:13:10.952Z,17.27
2017-09-30T03:15:38.474Z,18.17
2017-09-30T03:18:06.010Z,17.57
2017-09-30T03:20:33.526Z,17.43
2017-09-30T03:23:01.047Z,17.67
2017-09-30T03:25:29.307Z,17.17
2017-09-30T03:27:56.830Z,16.30
2017-09-30T03:30:24.349Z,17.93
2017-09-30T03:32:51.873Z,17.97
2017-09-30T03:35:19.390Z,17.80
2017-09-30T03:37:46.905Z,16.97
2017-09-30T03:40:14.419Z,20.60
2017-09-30T03:42:41.936Z,20.27
2017-09-30T03:45:09.471Z,19.70
2017-09-30T03:47:37.015Z,18.93
2017-09-30T03:50:04.524Z,19.37
2017-09-30T03:52:32.050Z,19.50
2017-09-30T03:54:59.543Z,18.90
2017-09-30T03:57:27.064Z,19.57
2017-09-30T03:59:54.583Z,18.80
2017-09-30T04:02:22.089Z,17.87
2017-09-30T04:04:50.376Z,17.73
2017-09-30T04:07:17.886Z,15.30
2017-09-30T04:09:45.450Z,15.83
2017-09-30T04:12:12.952Z,18.77
2017-09-30T04:14:40.499Z,18.80
2017-09-30T04:17:08.064Z,18.60
2017-09-30T04:19:35.556Z,19.53
2017-09-30T04:22:03.093Z,19.67
2017-09-30T04:24:30.595Z,17.40
2017-09-30T04:26:58.127Z,18.37
2017-09-30T04:29:25.633Z,19.57
2017-09-30T04:31:53.169Z,18.27
2017-09-30T04:34:20.661Z,20.57
2017-09-30T04:36:48.181Z,18.73
2017-09-30T04:39:15.707Z,21.93
2017-09-30T04:41:43.220Z,21.20
2017-09-30T04:44:10.760Z,22.93
2017-09-30T04:46:38.275Z,23.03
2017-09-30T04:49:05.805Z,24.30
2017-09-30T04:51:33.320Z,23.67
2017-09-30T04:54:00.829Z,26.43
2017-09-30T04:56:28.361Z,24.33
2017-09-30T04:58:55.876Z,25.40
2017-09-30T05:01:23.410Z,25.30
2017-09-30T05:03:51.696Z,23.27
2017-09-30T05:06:19.986Z,22.53
2017-09-30T05:08:47.521Z,19.90
2017-09-30T05:11:15.029Z,19.97
2017-09-30T05:13:42.564Z,19.00
2017-09-30T05:16:10.084Z,19.80
2017-09-30T05:18:37.626Z,17.60
2017-09-30T05:21:05.148Z,18.13
2017-09-30T05:23:32.684Z,18.27
2017-09-30T05:26:00.204Z,19.37
2017-09-30T05:28:27.825Z,20.30
2017-09-30T05:30:55.360Z,18.93
2017-09-30T05:33:22.880Z,18.37
2017-09-30T05:35:50.413Z,19.47
2017-09-30T05:38:24.544Z,20.23
2017-09-30T05:40:52.102Z,19.63
2017-09-30T05:43:19.952Z,19.90
2017-09-30T05:45:48.113Z,19.33
2017-09-30T05:48:15.661Z,18.90
2017-09-30T05:50:43.224Z,18.83
2017-09-30T05:53:11.247Z,18.43
2017-09-30T05:55:38.872Z,17.80
2017-09-30T05:58:06.665Z,16.80
2017-09-30T06:00:34.634Z,16.27
2017-09-30T06:03:02.985Z,18.17
2017-09-30T06:05:30.532Z,18.90
2017-09-30T06:07:58.132Z,21.93
2017-09-30T06:10:25.853Z,21.20
2017-09-30T06:12:53.500Z,21.20
2017-09-30T06:15:21.127Z,25.40
2017-09-30T06:17:48.743Z,22.63
2017-09-30T06:20:16.345Z,23.77
2017-09-30T06:22:43.908Z,23.10
2017-09-30T06:25:11.433Z,22.40
2017-09-30T06:27:39.043Z,21.20
2017-09-30T06:30:06.649Z,21.07
2017-09-30T06:32:34.216Z,21.03
2017-09-30T06:35:01.742Z,22.73
2017-09-30T06:37:29.313Z,22.03
2017-09-30T06:40:03.306Z,20.90
2017-09-30T06:42:30.822Z,21.07
2017-09-30T06:44:58.360Z,21.23
2017-09-30T06:47:34.476Z,22.27
2017-09-30T06:50:02.030Z,19.97
2017-09-30T06:52:30.307Z,21.33
2017-09-30T06:54:58.575Z,22.47
2017-09-30T06:57:26.868Z,19.70
2017-09-30T06:59:54.381Z,21.43
2017-09-30T07:02:21.924Z,22.67
2017-09-30T07:04:49.459Z,21.37
2017-09-30T07:07:16.992Z,20.60
2017-09-30T07:09:52.497Z,24.20
2017-09-30T07:12:20.036Z,22.33
2017-09-30T07:14:56.077Z,21.77
2017-09-30T07:17:23.665Z,25.13
2017-09-30T07:19:51.217Z,22.03
2017-09-30T07:22:18.779Z,19.97
2017-09-30T07:24:46.367Z,22.07
2017-09-30T07:27:13.978Z,21.40
2017-09-30T07:29:41.537Z,21.30
2017-09-30T07:32:09.140Z,21.20
2017-09-30T07:34:36.770Z,19.87
2017-09-30T07:37:04.434Z,19.00
2017-09-30T07:39:32.013Z,18.80
2017-09-30T07:41:59.561Z,17.60
2017-09-30T07:44:33.007Z,16.10
2017-09-30T07:47:00.665Z,14.00
2017-09-30T07:49:28.290Z,14.80
2017-09-30T07:51:55.885Z,15.50
2017-09-30T07:54:23.454Z,13.20
2017-09-30T07:56:51.050Z,12.50
2017-09-30T07:59:18.635Z,12.30
2017-09-30T08:01:46.978Z,12.17
2017-09-30T08:04:38.273Z,11.90
2017-09-30T08:07:05.933Z,13.20
2017-09-30T08:09:33.541Z,12.20
2017-09-30T08:12:01.180Z,12.37
2017-09-30T08:14:28.831Z,12.30
2017-09-30T08:16:56.428Z,12.30
2017-09-30T08:19:24.089Z,12.60
2017-09-30T08:21:52.400Z,13.30
2017-09-30T08:24:20.712Z,12.67
2017-09-30T08:26:48.526Z,10.80
2017-09-30T08:29:24.745Z,12.07
2017-09-30T08:31:52.374Z,11.40
2017-09-30T08:34:19.925Z,11.37
2017-09-30T08:36:47.501Z,10.50
2017-09-30T08:39:15.093Z,10.67
2017-09-30T08:41:42.710Z,11.23
2017-09-30T08:44:10.314Z,10.17
2017-09-30T08:46:37.858Z,10.07
2017-09-30T08:49:05.384Z,10.07
2017-09-30T08:51:33.006Z,9.30
2017-09-30T08:54:01.386Z,9.77
2017-09-30T08:56:28.946Z,8.87
2017-09-30T08:58:57.300Z,8.17
2017-09-30T09:01:24.830Z,8.60
2017-09-30T09:03:52.409Z,9.00
2017-09-30T09:06:19.936Z,7.13
2017-09-30T09:08:47.579Z,8.43
2017-09-30T09:11:15.264Z,8.17
2017-09-30T09:13:42.793Z,7.63
2017-09-30T09:16:10.361Z,7.20
2017-09-30T09:18:38.685Z,7.67
2017-09-30T09:21:06.364Z,8.00
2017-09-30T09:23:33.973Z,8.17
2017-09-30T09:26:01.681Z,8.00
2017-09-30T09:28:29.345Z,8.03
2017-09-30T09:30:56.909Z,7.77
2017-09-30T09:33:25.362Z,7.50
2017-09-30T09:35:53.785Z,8.03
2017-09-30T09:38:21.299Z,8.03
2017-09-30T09:40:48.848Z,7.17
2017-09-30T09:43:16.604Z,8.30
2017-09-30T09:45:44.144Z,7.43
2017-09-30T09:48:12.424Z,7.23
2017-09-30T09:50:41.001Z,7.90
2017-09-30T09:53:09.298Z,7.87
2017-09-30T09:55:37.573Z,7.87
2017-09-30T09:58:05.849Z,7.17
2017-09-30T10:00:34.143Z,7.60
2017-09-30T10:03:09.666Z,6.90
2017-09-30T10:05:37.959Z,7.60
2017-09-30T10:08:05.525Z,7.30
2017-09-30T10:10:33.123Z,7.43
2017-09-30T10:13:00.674Z,7.10
2017-09-30T10:15:28.277Z,7.00
2017-09-30T10:17:55.875Z,7.03
2017-09-30T10:20:23.483Z,6.80
2017-09-30T10:22:51.012Z,7.70
2017-09-30T10:25:18.515Z,6.80
2017-09-30T10:27:46.815Z,6.63
2017-09-30T10:30:14.334Z,7.30
2017-09-30T10:32:41.928Z,6.20
2017-09-30T10:35:09.468Z,6.97
2017-09-30T10:37:37.849Z,6.43
2017-09-30T10:40:06.109Z,6.30
2017-09-30T10:42:33.902Z,5.90
2017-09-30T10:45:01.502Z,6.50
2017-09-30T10:47:29.012Z,6.70
2017-09-30T10:49:57.304Z,6.70
2017-09-30T10:52:24.805Z,6.60
2017-09-30T10:54:52.561Z,5.87
2017-09-30T10:57:20.067Z,6.27
2017-09-30T10:59:48.344Z,6.20
2017-09-30T11:02:16.602Z,5.53
2017-09-30T11:04:45.220Z,5.60
2017-09-30T11:07:12.807Z,6.03
2017-09-30T11:09:40.335Z,6.60
2017-09-30T11:12:07.869Z,6.63
2017-09-30T11:14:35.406Z,5.13
2017-09-30T11:17:02.956Z,6.17
2017-09-30T11:19:30.472Z,5.97
2017-09-30T11:21:57.997Z,6.53
2017-09-30T11:24:25.562Z,5.73
2017-09-30T11:26:53.125Z,5.93
2017-09-30T11:29:20.693Z,6.10
2017-09-30T11:31:48.243Z,6.00
2017-09-30T11:34:16.574Z,5.83
2017-09-30T11:36:44.132Z,6.80
2017-09-30T11:39:11.714Z,6.40
2017-09-30T11:41:39.297Z,7.07
2017-09-30T11:44:07.645Z,6.10
2017-09-30T11:46:36.067Z,6.30
2017-09-30T11:49:03.659Z,5.80
2017-09-30T11:51:31.260Z,6.87
2017-09-30T11:53:58.857Z,6.77
2017-09-30T11:56:26.449Z,6.33
2017-09-30T11:58:54.028Z,5.80
2017-09-30T12:01:21.606Z,5.97
2017-09-30T12:03:49.184Z,6.50
2017-09-30T12:06:16.806Z,5.90
2017-09-30T12:08:44.355Z,5.73
2017-09-30T12:11:11.912Z,6.63
2017-09-30T12:13:39.482Z,6.07
2017-09-30T12:16:07.067Z,6.33
2017-09-30T12:18:35.377Z,6.23
2017-09-30T12:21:02.922Z,6.10
2017-09-30T12:23:30.480Z,6.53
2017-09-30T12:25:58.015Z,6.30
2017-09-30T12:28:26.353Z,6.70
2017-09-30T12:30:53.930Z,6.40
2017-09-30T12:33:21.486Z,6.27
2017-09-30T12:35:49.848Z,5.93
2017-09-30T12:38:17.404Z,6.47
2017-09-30T12:40:45.054Z,6.00
2017-09-30T12:43:12.626Z,7.00
2017-09-30T12:45:40.155Z,6.97
2017-09-30T12:48:07.770Z,8.10
2017-09-30T12:50:35.275Z,8.83
2017-09-30T12:53:09.086Z,8.77
2017-09-30T12:55:36.646Z,8.97
2017-09-30T12:58:12.382Z,8.80
2017-09-30T13:00:39.895Z,9.00
2017-09-30T13:03:07.436Z,9.80
2017-09-30T13:05:35.009Z,9.87
2017-09-30T13:08:03.418Z,10.57
2017-09-30T13:10:32.557Z,9.33
2017-09-30T13:13:00.093Z,11.03
2017-09-30T13:15:27.660Z,10.70
2017-09-30T13:17:55.225Z,10.50
2017-09-30T13:20:22.744Z,10.10
2017-09-30T13:22:54.025Z,10.57
2017-09-30T13:25:21.577Z,11.10
2017-09-30T13:27:57.006Z,11.40
2017-09-30T13:30:24.560Z,11.80
2017-09-30T13:32:52.901Z,11.97
2017-09-30T13:35:20.428Z,10.10
2017-09-30T13:37:47.960Z,11.43
2017-09-30T13:40:15.513Z,11.13
2017-09-30T13:42:43.028Z,11.40
2017-09-30T13:45:10.565Z,12.13
2017-09-30T13:47:38.101Z,11.27
2017-09-30T13:50:06.381Z,10.37
2017-09-30T13:52:34.648Z,13.00
2017-09-30T13:55:03.049Z,12.47
2017-09-30T13:57:30.629Z,13.07
2017-09-30T13:59:58.181Z,12.20
2017-09-30T14:02:25.709Z,12.07
2017-09-30T14:04:53.239Z,12.07
2017-09-30T14:07:20.856Z,13.07
2017-09-30T14:09:48.391Z,13.83
2017-09-30T14:12:15.945Z,12.90
2017-09-30T14:14:43.483Z,10.63
2017-09-30T14:17:11.054Z,9.37
2017-09-30T14:19:38.608Z,9.70
2017-09-30T14:22:06.159Z,10.20
2017-09-30T14:24:33.745Z,11.00
2017-09-30T14:27:01.271Z,10.87
2017-09-30T14:29:29.643Z,10.13
2017-09-30T14:31:57.187Z,10.27
2017-09-30T14:34:24.756Z,9.43
2017-09-30T14:36:52.294Z,10.57
2017-09-30T14:39:19.809Z,10.97
2017-09-30T14:41:47.370Z,9.70
2017-09-30T14:44:14.910Z,11.90
2017-09-30T14:46:42.463Z,10.40
2017-09-30T14:49:09.989Z,11.30
2017-09-30T14:51:37.511Z,10.30
2017-09-30T14:54:05.069Z,10.63
2017-09-30T14:56:32.651Z,9.87
2017-09-30T14:59:02.383Z,10.20
2017-09-30T15:01:30.205Z,11.43
2017-09-30T15:04:07.349Z,10.10
2017-09-30T15:09:23.989Z,9.33
2017-09-30T15:18:15.966Z,8.00
2017-09-30T15:20:52.489Z,8.80
2017-09-30T15:23:20.027Z,7.83
2017-09-30T15:25:47.561Z,8.00
2017-09-30T15:28:15.134Z,6.77
2017-09-30T15:30:42.675Z,8.13
2017-09-30T15:33:10.265Z,6.50
2017-09-30T15:35:37.800Z,6.27
2017-09-30T15:38:05.345Z,5.63
2017-09-30T15:40:32.913Z,4.80
2017-09-30T15:43:06.209Z,5.90
2017-09-30T15:45:33.729Z,5.23
2017-09-30T15:48:01.258Z,5.00
2017-09-30T15:50:28.797Z,4.17
2017-09-30T15:52:56.318Z,4.20
2017-09-30T15:55:23.867Z,4.20
2017-09-30T15:57:59.668Z,3.90
2017-09-30T16:00:27.210Z,4.10
2017-09-30T16:02:54.704Z,3.80
2017-09-30T16:05:22.202Z,3.40
2017-09-30T16:07:49.715Z,3.37
2017-09-30T16:10:17.242Z,3.57
2017-09-30T16:12:44.778Z,3.60
2017-09-30T16:15:13.044Z,3.47
2017-09-30T16:17:40.578Z,3.33
2017-09-30T16:20:08.086Z,3.03
2017-09-30T16:22:35.661Z,3.13
2017-09-30T16:25:03.171Z,2.90
2017-09-30T16:27:30.696Z,2.90
2017-09-30T16:29:58.208Z,2.70
2017-09-30T16:32:26.479Z,2.73
2017-09-30T16:34:53.989Z,2.90
2017-09-30T16:37:21.508Z,2.57
2017-09-30T16:39:49.784Z,2.63
2017-09-30T16:42:17.289Z,2.37
2017-09-30T16:44:44.826Z,2.50
2017-09-30T16:47:12.341Z,2.30
2017-09-30T16:49:39.835Z,2.17
2017-09-30T16:52:07.344Z,2.60
2017-09-30T16:54:34.846Z,2.42
2017-09-30T16:57:02.362Z,2.10
2017-09-30T16:59:29.889Z,2.30
2017-09-30T17:01:57.426Z,2.30
2017-09-30T17:04:24.929Z,2.17
2017-09-30T17:06:52.434Z,1.60
2017-09-30T17:09:19.949Z,1.87
2017-09-30T17:11:47.573Z,2.83
2017-09-30T17:14:16.136Z,1.70
2017-09-30T17:16:43.707Z,2.10
2017-09-30T17:19:11.313Z,2.30
2017-09-30T17:21:38.841Z,1.70
2017-09-30T17:24:06.362Z,1.50
2017-09-30T17:26:35.020Z,1.97
2017-09-30T17:29:02.580Z,1.30
2017-09-30T17:31:30.134Z,1.17
2017-09-30T17:33:57.691Z,2.20
2017-09-30T17:36:25.263Z,1.50
2017-09-30T17:38:53.581Z,4.80
2017-09-30T17:41:21.157Z,1.27
2017-09-30T17:43:48.706Z,3.00
2017-09-30T17:46:16.231Z,1.60
2017-09-30T17:48:43.796Z,1.90
2017-09-30T17:51:11.317Z,1.50
2017-09-30T17:53:38.878Z,1.50
2017-09-30T17:56:07.185Z,1.77
2017-09-30T17:58:34.743Z,1.67
2017-09-30T18:01:02.286Z,1.20
2017-09-30T18:03:29.869Z,1.20
2017-09-30T18:05:57.399Z,1.37
2017-09-30T18:08:24.951Z,1.50
2017-09-30T18:10:53.276Z,1.67
2017-09-30T18:13:20.796Z,1.40
2017-09-30T18:15:48.352Z,1.93
2017-09-30T18:18:16.644Z,1.20
2017-09-30T18:20:44.214Z,2.10
2017-09-30T18:23:12.519Z,1.33
2017-09-30T18:25:40.105Z,1.77
2017-09-30T18:28:07.685Z,1.62
2017-09-30T18:30:35.280Z,1.30
2017-09-30T18:33:02.818Z,1.40
2017-09-30T18:35:30.352Z,1.20
2017-09-30T18:37:57.960Z,1.65
2017-09-30T18:40:25.489Z,1.30
2017-09-30T18:42:53.829Z,1.60
2017-09-30T18:45:21.364Z,2.00
2017-09-30T18:47:48.890Z,2.58
2017-09-30T18:50:17.188Z,1.67
2017-09-30T18:52:44.745Z,2.10
2017-09-30T18:55:12.368Z,3.37
2017-09-30T18:57:39.950Z,2.10
2017-09-30T19:00:07.553Z,2.33
2017-09-30T19:02:35.143Z,2.00
2017-09-30T19:05:03.445Z,1.85
2017-09-30T19:07:32.695Z,2.00
2017-09-30T19:10:00.215Z,1.80
2017-09-30T19:12:27.770Z,2.45
2017-09-30T19:14:55.306Z,1.83
2017-09-30T19:17:23.658Z,1.77
2017-09-30T19:19:51.388Z,2.20
2017-09-30T19:22:19.878Z,1.90
2017-09-30T19:24:50.095Z,1.70
2017-09-30T19:27:17.647Z,2.13
2017-09-30T19:29:45.279Z,1.55
2017-09-30T19:32:12.850Z,1.83
2017-09-30T19:34:40.476Z,1.60
2017-09-30T19:37:08.134Z,2.70
2017-09-30T19:39:35.713Z,1.83
2017-09-30T19:42:04.056Z,2.20
2017-09-30T19:44:32.531Z,1.87
2017-09-30T19:47:00.146Z,1.73
2017-09-30T19:49:27.742Z,1.90
2017-09-30T19:51:55.318Z,2.27
2017-09-30T19:54:22.925Z,1.83
2017-09-30T19:56:50.502Z,2.10
2017-09-30T19:59:18.905Z,1.77
2017-09-30T20:01:46.503Z,1.70
2017-09-30T20:04:14.030Z,1.53
2017-09-30T20:06:41.698Z,2.23
2017-09-30T20:09:09.257Z,1.80
2017-09-30T20:11:36.814Z,1.67
2017-09-30T20:14:04.549Z,1.83
2017-09-30T20:16:32.092Z,1.40
2017-09-30T20:18:59.966Z,1.40
2017-09-30T20:21:27.572Z,1.50
2017-09-30T20:23:55.918Z,1.37
2017-09-30T20:26:23.451Z,1.33
2017-09-30T20:28:51.029Z,1.20
2017-09-30T20:31:18.654Z,1.57
2017-09-30T20:33:47.082Z,1.57
2017-09-30T20:36:14.718Z,1.70
2017-09-30T20:38:42.354Z,1.50
2017-09-30T20:41:10.693Z,1.57
2017-09-30T20:43:38.294Z,1.30
2017-09-30T20:46:06.668Z,1.93
2017-09-30T20:48:34.308Z,1.90
2017-09-30T20:51:02.721Z,2.10
2017-09-30T20:53:30.386Z,2.03
2017-09-30T20:55:58.029Z,2.07
2017-09-30T20:58:25.670Z,2.20
2017-09-30T21:00:54.019Z,2.20
2017-09-30T21:03:21.554Z,2.03
2017-09-30T21:05:49.773Z,2.05
2017-09-30T21:08:17.858Z,2.20
2017-09-30T21:10:45.557Z,2.40
2017-09-30T21:13:13.113Z,2.10
2017-09-30T21:15:40.744Z,2.10
2017-09-30T21:18:08.358Z,2.30
2017-09-30T21:20:35.916Z,2.00
2017-09-30T21:23:03.551Z,2.10
2017-09-30T21:25:31.174Z,2.27
2017-09-30T21:27:58.779Z,2.50
2017-09-30T21:30:26.422Z,2.50
2017-09-30T21:32:53.966Z,2.70
2017-09-30T21:35:22.352Z,2.28
2017-09-30T21:37:49.919Z,2.45
2017-09-30T21:40:17.524Z,2.75
2017-09-30T21:42:45.092Z,2.65
2017-09-30T21:45:12.669Z,2.80
2017-09-30T21:47:40.293Z,2.65
2017-09-30T21:50:07.906Z,2.35
2017-09-30T21:52:36.392Z,3.00
2017-09-30T21:55:03.987Z,3.17
2017-09-30T21:57:31.600Z,2.80
2017-09-30T21:59:59.216Z,3.50
2017-09-30T22:02:26.819Z,2.83
2017-09-30T22:04:54.357Z,3.00
2017-09-30T22:07:21.965Z,3.40
2017-09-30T22:09:49.597Z,2.87
2017-09-30T22:12:17.965Z,3.47
2017-09-30T22:14:46.325Z,3.03
2017-09-30T22:17:13.963Z,3.27
2017-09-30T22:19:41.658Z,3.20
2017-09-30T22:22:10.071Z,3.05
2017-09-30T22:24:37.713Z,3.57
2017-09-30T22:27:06.109Z,3.43
2017-09-30T22:29:34.427Z,2.90
2017-09-30T22:32:02.064Z,3.60
2017-09-30T22:34:29.601Z,3.50
2017-09-30T22:36:57.193Z,3.70
2017-09-30T22:39:25.554Z,3.50
2017-09-30T22:41:53.153Z,3.30
2017-09-30T22:44:21.481Z,3.40
2017-09-30T22:46:49.078Z,3.40
2017-09-30T22:49:17.401Z,3.47
2017-09-30T22:51:44.993Z,3.00
2017-09-30T22:54:12.548Z,3.23
2017-09-30T22:56:40.169Z,2.93
2017-09-30T22:59:07.766Z,3.70
2017-09-30T23:01:35.543Z,3.50
2017-09-30T23:04:03.121Z,2.58
2017-09-30T23:06:31.482Z,3.13
2017-09-30T23:08:59.816Z,3.22
2017-09-30T23:11:27.453Z,2.90
2017-09-30T23:13:55.047Z,3.08
2017-09-30T23:16:22.634Z,3.40
2017-09-30T23:18:50.184Z,2.35
2017-09-30T23:21:17.856Z,2.53
2017-09-30T23:23:46.326Z,2.53
2017-09-30T23:26:13.949Z,2.67
2017-09-30T23:28:42.385Z,2.93
2017-09-30T23:31:10.749Z,2.70
2017-09-30T23:33:38.314Z,2.42
2017-09-30T23:36:05.943Z,2.42
2017-09-30T23:38:33.562Z,2.50
2017-09-30T23:41:01.905Z,2.33
2017-09-30T23:43:31.440Z,2.50
2017-09-30T23:45:59.764Z,2.65
2017-09-30T23:48:27.301Z,2.65
2017-09-30T23:50:54.858Z,2.80
2017-09-30T23:53:22.490Z,2.92
2017-09-30T23:55:50.096Z,2.65
2017-09-30T23:58:17.693Z,3.00
